sensor_id;sensor_type;location;lat;lon;timestamp;P1;durP1;ratioP1;P2;durP2;ratioP2
43793;SDS011;29414;44.798;20.366;2023-06-04T00:03:42;6.07;;;4.57;;
43793;SDS011;29414;44.798;20.366;2023-06-04T00:07:42;4.80;;;4.38;;
43793;SDS011;29414;44.798;20.366;2023-06-04T00:11:42;4.60;;;4.20;;
43793;SDS011;29414;44.798;20.366;2023-06-04T00:15:42;7.50;;;4.40;;
43793;SDS011;29414;44.798;20.366;2023-06-04T00:19:43;4.13;;;3.72;;
43793;SDS011;29414;44.798;20.366;2023-06-04T00:23:43;4.25;;;3.85;;
43793;SDS011;29414;44.798;20.366;2023-06-04T00:27:43;4.88;;;4.47;;
43793;SDS011;29414;44.798;20.366;2023-06-04T00:31:44;5.95;;;4.22;;
43793;SDS011;29414;44.798;20.366;2023-06-04T00:35:44;6.32;;;4.65;;
43793;SDS011;29414;44.798;20.366;2023-06-04T00:39:44;7.30;;;4.80;;
43793;SDS011;29414;44.798;20.366;2023-06-04T00:43:45;8.32;;;5.22;;
43793;SDS011;29414;44.798;20.366;2023-06-04T00:47:45;5.63;;;4.43;;
43793;SDS011;29414;44.798;20.366;2023-06-04T00:51:46;6.15;;;5.03;;
43793;SDS011;29414;44.798;20.366;2023-06-04T00:55:46;7.07;;;4.57;;
43793;SDS011;29414;44.798;20.366;2023-06-04T00:59:46;5.28;;;4.78;;
43793;SDS011;29414;44.798;20.366;2023-06-04T01:03:47;4.82;;;4.43;;
43793;SDS011;29414;44.798;20.366;2023-06-04T01:07:49;6.05;;;4.65;;
43793;SDS011;29414;44.798;20.366;2023-06-04T01:11:50;6.60;;;4.45;;
43793;SDS011;29414;44.798;20.366;2023-06-04T01:15:50;5.88;;;5.10;;
43793;SDS011;29414;44.798;20.366;2023-06-04T01:24:11;7.07;;;5.00;;
43793;SDS011;29414;44.798;20.366;2023-06-04T01:28:13;7.63;;;5.53;;
43793;SDS011;29414;44.798;20.366;2023-06-04T01:32:15;5.45;;;4.70;;
43793;SDS011;29414;44.798;20.366;2023-06-04T01:36:15;8.77;;;5.20;;
43793;SDS011;29414;44.798;20.366;2023-06-04T01:40:15;6.35;;;5.07;;
43793;SDS011;29414;44.798;20.366;2023-06-04T01:44:16;5.35;;;4.82;;
43793;SDS011;29414;44.798;20.366;2023-06-04T01:48:16;6.64;;;5.08;;
43793;SDS011;29414;44.798;20.366;2023-06-04T01:52:16;6.84;;;5.22;;
43793;SDS011;29414;44.798;20.366;2023-06-04T01:56:17;4.95;;;4.45;;
43793;SDS011;29414;44.798;20.366;2023-06-04T02:00:17;10.48;;;4.72;;
43793;SDS011;29414;44.798;20.366;2023-06-04T02:04:17;6.07;;;4.80;;
43793;SDS011;29414;44.798;20.366;2023-06-04T02:08:18;8.73;;;6.07;;
43793;SDS011;29414;44.798;20.366;2023-06-04T02:12:21;8.63;;;6.80;;
43793;SDS011;29414;44.798;20.366;2023-06-04T02:16:21;6.97;;;6.13;;
43793;SDS011;29414;44.798;20.366;2023-06-04T02:20:21;7.38;;;6.50;;
43793;SDS011;29414;44.798;20.366;2023-06-04T02:24:22;8.55;;;6.47;;
43793;SDS011;29414;44.798;20.366;2023-06-04T02:28:22;7.50;;;6.72;;
43793;SDS011;29414;44.798;20.366;2023-06-04T02:32:23;10.02;;;7.97;;
43793;SDS011;29414;44.798;20.366;2023-06-04T02:36:23;9.15;;;8.23;;
43793;SDS011;29414;44.798;20.366;2023-06-04T02:40:24;10.00;;;7.70;;
43793;SDS011;29414;44.798;20.366;2023-06-04T02:44:25;11.30;;;7.40;;
43793;SDS011;29414;44.798;20.366;2023-06-04T02:48:25;9.38;;;6.85;;
43793;SDS011;29414;44.798;20.366;2023-06-04T02:52:25;7.90;;;7.05;;
43793;SDS011;29414;44.798;20.366;2023-06-04T02:56:26;9.55;;;7.38;;
43793;SDS011;29414;44.798;20.366;2023-06-04T03:00:27;11.98;;;8.13;;
43793;SDS011;29414;44.798;20.366;2023-06-04T03:04:27;11.85;;;7.68;;
43793;SDS011;29414;44.798;20.366;2023-06-04T03:08:34;8.95;;;7.00;;
43793;SDS011;29414;44.798;20.366;2023-06-04T03:12:34;8.52;;;7.65;;
43793;SDS011;29414;44.798;20.366;2023-06-04T03:16:35;9.93;;;6.95;;
43793;SDS011;29414;44.798;20.366;2023-06-04T03:20:39;10.60;;;8.13;;
43793;SDS011;29414;44.798;20.366;2023-06-04T03:24:40;12.38;;;8.18;;
43793;SDS011;29414;44.798;20.366;2023-06-04T03:28:40;8.75;;;7.88;;
43793;SDS011;29414;44.798;20.366;2023-06-04T03:32:41;11.48;;;8.23;;
43793;SDS011;29414;44.798;20.366;2023-06-04T03:36:43;10.43;;;9.18;;
43793;SDS011;29414;44.798;20.366;2023-06-04T03:40:45;11.73;;;10.52;;
43793;SDS011;29414;44.798;20.366;2023-06-04T03:44:45;13.70;;;9.75;;
43793;SDS011;29414;44.798;20.366;2023-06-04T03:48:46;12.20;;;9.10;;
43793;SDS011;29414;44.798;20.366;2023-06-04T03:52:47;12.48;;;10.02;;
43793;SDS011;29414;44.798;20.366;2023-06-04T03:56:47;9.20;;;8.00;;
43793;SDS011;29414;44.798;20.366;2023-06-04T04:00:48;9.68;;;8.38;;
43793;SDS011;29414;44.798;20.366;2023-06-04T04:04:48;12.10;;;8.52;;
43793;SDS011;29414;44.798;20.366;2023-06-04T04:08:49;9.05;;;8.15;;
43793;SDS011;29414;44.798;20.366;2023-06-04T04:12:49;9.07;;;8.20;;
43793;SDS011;29414;44.798;20.366;2023-06-04T04:16:51;10.45;;;8.13;;
43793;SDS011;29414;44.798;20.366;2023-06-04T04:20:51;9.15;;;7.65;;
43793;SDS011;29414;44.798;20.366;2023-06-04T04:24:52;8.20;;;7.40;;
43793;SDS011;29414;44.798;20.366;2023-06-04T04:28:52;7.22;;;6.42;;
43793;SDS011;29414;44.798;20.366;2023-06-04T04:32:57;7.78;;;6.13;;
43793;SDS011;29414;44.798;20.366;2023-06-04T04:36:58;6.80;;;6.16;;
43793;SDS011;29414;44.798;20.366;2023-06-04T04:40:59;7.07;;;5.55;;
43793;SDS011;29414;44.798;20.366;2023-06-04T04:45:00;8.00;;;5.70;;
43793;SDS011;29414;44.798;20.366;2023-06-04T04:49:00;6.97;;;6.22;;
43793;SDS011;29414;44.798;20.366;2023-06-04T04:53:01;9.08;;;5.78;;
43793;SDS011;29414;44.798;20.366;2023-06-04T04:57:02;5.80;;;4.53;;
43793;SDS011;29414;44.798;20.366;2023-06-04T05:01:02;4.88;;;4.05;;
43793;SDS011;29414;44.798;20.366;2023-06-04T05:05:03;6.20;;;4.72;;
43793;SDS011;29414;44.798;20.366;2023-06-04T05:09:03;5.97;;;4.40;;
43793;SDS011;29414;44.798;20.366;2023-06-04T05:13:03;6.28;;;3.92;;
43793;SDS011;29414;44.798;20.366;2023-06-04T05:17:06;7.22;;;4.43;;
43793;SDS011;29414;44.798;20.366;2023-06-04T05:21:06;6.78;;;4.20;;
43793;SDS011;29414;44.798;20.366;2023-06-04T05:25:07;5.45;;;3.70;;
43793;SDS011;29414;44.798;20.366;2023-06-04T05:29:08;6.53;;;4.40;;
43793;SDS011;29414;44.798;20.366;2023-06-04T05:33:09;4.65;;;4.05;;
43793;SDS011;29414;44.798;20.366;2023-06-04T05:37:17;6.80;;;3.60;;
43793;SDS011;29414;44.798;20.366;2023-06-04T05:41:18;10.10;;;4.07;;
43793;SDS011;29414;44.798;20.366;2023-06-04T05:45:18;7.03;;;3.65;;
43793;SDS011;29414;44.798;20.366;2023-06-04T05:49:18;7.55;;;4.28;;
43793;SDS011;29414;44.798;20.366;2023-06-04T05:53:19;4.28;;;3.88;;
43793;SDS011;29414;44.798;20.366;2023-06-04T05:57:20;8.30;;;4.30;;
43793;SDS011;29414;44.798;20.366;2023-06-04T06:01:20;8.35;;;4.28;;
43793;SDS011;29414;44.798;20.366;2023-06-04T06:05:21;7.43;;;4.40;;
43793;SDS011;29414;44.798;20.366;2023-06-04T06:09:22;7.97;;;3.70;;
43793;SDS011;29414;44.798;20.366;2023-06-04T06:13:22;5.03;;;3.88;;
43793;SDS011;29414;44.798;20.366;2023-06-04T06:17:22;3.84;;;3.50;;
43793;SDS011;29414;44.798;20.366;2023-06-04T06:21:24;8.82;;;4.18;;
43793;SDS011;29414;44.798;20.366;2023-06-04T06:25:24;4.40;;;4.00;;
43793;SDS011;29414;44.798;20.366;2023-06-04T06:29:24;6.14;;;3.84;;
43793;SDS011;29414;44.798;20.366;2023-06-04T06:33:25;6.88;;;3.38;;
43793;SDS011;29414;44.798;20.366;2023-06-04T06:37:25;5.07;;;3.65;;
43793;SDS011;29414;44.798;20.366;2023-06-04T06:41:25;4.68;;;3.17;;
43793;SDS011;29414;44.798;20.366;2023-06-04T06:45:26;3.58;;;3.28;;
43793;SDS011;29414;44.798;20.366;2023-06-04T06:49:26;7.13;;;3.70;;
43793;SDS011;29414;44.798;20.366;2023-06-04T06:53:26;4.75;;;3.33;;
43793;SDS011;29414;44.798;20.366;2023-06-04T06:57:27;4.10;;;3.67;;
43793;SDS011;29414;44.798;20.366;2023-06-04T07:01:27;7.13;;;3.97;;
43793;SDS011;29414;44.798;20.366;2023-06-04T07:05:27;5.60;;;2.88;;
43793;SDS011;29414;44.798;20.366;2023-06-04T07:09:28;5.74;;;3.74;;
43793;SDS011;29414;44.798;20.366;2023-06-04T07:13:28;2.92;;;2.58;;
43793;SDS011;29414;44.798;20.366;2023-06-04T07:17:28;4.10;;;3.50;;
43793;SDS011;29414;44.798;20.366;2023-06-04T07:21:28;5.07;;;3.28;;
43793;SDS011;29414;44.798;20.366;2023-06-04T07:25:29;6.00;;;3.38;;
43793;SDS011;29414;44.798;20.366;2023-06-04T07:29:29;3.47;;;2.63;;
43793;SDS011;29414;44.798;20.366;2023-06-04T07:33:29;3.95;;;2.58;;
43793;SDS011;29414;44.798;20.366;2023-06-04T07:37:30;4.65;;;3.00;;
43793;SDS011;29414;44.798;20.366;2023-06-04T07:41:30;5.05;;;2.78;;
43793;SDS011;29414;44.798;20.366;2023-06-04T07:45:30;3.55;;;2.58;;
43793;SDS011;29414;44.798;20.366;2023-06-04T07:49:31;3.67;;;3.03;;
43793;SDS011;29414;44.798;20.366;2023-06-04T07:53:31;2.90;;;2.70;;
43793;SDS011;29414;44.798;20.366;2023-06-04T07:57:31;3.62;;;2.50;;
43793;SDS011;29414;44.798;20.366;2023-06-04T08:01:32;3.72;;;2.67;;
43793;SDS011;29414;44.798;20.366;2023-06-04T08:05:32;4.85;;;3.33;;
43793;SDS011;29414;44.798;20.366;2023-06-04T08:09:32;6.70;;;3.42;;
43793;SDS011;29414;44.798;20.366;2023-06-04T08:13:33;6.82;;;3.04;;
43793;SDS011;29414;44.798;20.366;2023-06-04T08:17:33;4.72;;;3.15;;
43793;SDS011;29414;44.798;20.366;2023-06-04T08:21:33;3.45;;;2.88;;
43793;SDS011;29414;44.798;20.366;2023-06-04T08:25:37;3.58;;;2.90;;
43793;SDS011;29414;44.798;20.366;2023-06-04T08:29:37;4.03;;;3.35;;
43793;SDS011;29414;44.798;20.366;2023-06-04T08:33:42;6.90;;;3.33;;
43793;SDS011;29414;44.798;20.366;2023-06-04T08:37:42;4.15;;;2.97;;
43793;SDS011;29414;44.798;20.366;2023-06-04T08:41:47;4.68;;;3.05;;
43793;SDS011;29414;44.798;20.366;2023-06-04T08:45:49;3.25;;;2.85;;
43793;SDS011;29414;44.798;20.366;2023-06-04T08:49:50;6.55;;;3.20;;
43793;SDS011;29414;44.798;20.366;2023-06-04T08:53:52;3.83;;;2.80;;
43793;SDS011;29414;44.798;20.366;2023-06-04T08:57:54;3.35;;;3.03;;
43793;SDS011;29414;44.798;20.366;2023-06-04T09:01:55;6.57;;;3.05;;
43793;SDS011;29414;44.798;20.366;2023-06-04T09:05:55;4.10;;;3.00;;
43793;SDS011;29414;44.798;20.366;2023-06-04T09:09:56;5.65;;;2.85;;
43793;SDS011;29414;44.798;20.366;2023-06-04T09:13:57;4.65;;;3.35;;
43793;SDS011;29414;44.798;20.366;2023-06-04T09:18:02;3.45;;;2.88;;
43793;SDS011;29414;44.798;20.366;2023-06-04T09:22:03;6.45;;;3.47;;
43793;SDS011;29414;44.798;20.366;2023-06-04T09:26:09;6.57;;;3.17;;
43793;SDS011;29414;44.798;20.366;2023-06-04T09:30:10;5.30;;;3.25;;
43793;SDS011;29414;44.798;20.366;2023-06-04T09:34:10;4.57;;;3.03;;
43793;SDS011;29414;44.798;20.366;2023-06-04T09:38:10;6.07;;;3.13;;
43793;SDS011;29414;44.798;20.366;2023-06-04T09:42:11;4.80;;;2.88;;
43793;SDS011;29414;44.798;20.366;2023-06-04T09:46:12;3.83;;;2.78;;
43793;SDS011;29414;44.798;20.366;2023-06-04T09:50:13;4.85;;;2.72;;
43793;SDS011;29414;44.798;20.366;2023-06-04T09:54:13;3.75;;;2.50;;
43793;SDS011;29414;44.798;20.366;2023-06-04T09:58:13;2.75;;;2.28;;
43793;SDS011;29414;44.798;20.366;2023-06-04T10:02:14;3.75;;;2.80;;
43793;SDS011;29414;44.798;20.366;2023-06-04T10:06:18;6.28;;;2.65;;
43793;SDS011;29414;44.798;20.366;2023-06-04T10:10:20;5.72;;;2.67;;
43793;SDS011;29414;44.798;20.366;2023-06-04T10:14:37;3.08;;;2.78;;
43793;SDS011;29414;44.798;20.366;2023-06-04T10:18:41;3.28;;;2.22;;
43793;SDS011;29414;44.798;20.366;2023-06-04T10:22:41;2.30;;;2.10;;
43793;SDS011;29414;44.798;20.366;2023-06-04T10:26:42;4.03;;;3.00;;
43793;SDS011;29414;44.798;20.366;2023-06-04T10:30:42;4.13;;;2.92;;
43793;SDS011;29414;44.798;20.366;2023-06-04T10:34:43;6.13;;;2.53;;
43793;SDS011;29414;44.798;20.366;2023-06-04T10:38:50;3.10;;;2.22;;
43793;SDS011;29414;44.798;20.366;2023-06-04T10:42:51;4.00;;;2.40;;
43793;SDS011;29414;44.798;20.366;2023-06-04T10:46:53;2.53;;;2.08;;
43793;SDS011;29414;44.798;20.366;2023-06-04T10:50:53;2.65;;;1.95;;
43793;SDS011;29414;44.798;20.366;2023-06-04T10:55:02;2.92;;;1.83;;
43793;SDS011;29414;44.798;20.366;2023-06-04T10:59:16;2.50;;;1.73;;
43793;SDS011;29414;44.798;20.366;2023-06-04T11:03:16;2.90;;;1.92;;
43793;SDS011;29414;44.798;20.366;2023-06-04T11:07:16;2.60;;;2.13;;
43793;SDS011;29414;44.798;20.366;2023-06-04T11:11:19;4.80;;;2.80;;
43793;SDS011;29414;44.798;20.366;2023-06-04T11:15:19;3.25;;;1.67;;
43793;SDS011;29414;44.798;20.366;2023-06-04T11:19:20;3.35;;;2.63;;
43793;SDS011;29414;44.798;20.366;2023-06-04T11:23:20;4.80;;;2.15;;
43793;SDS011;29414;44.798;20.366;2023-06-04T11:27:21;1.92;;;1.83;;
43793;SDS011;29414;44.798;20.366;2023-06-04T11:31:21;5.82;;;1.90;;
43793;SDS011;29414;44.798;20.366;2023-06-04T11:35:22;2.70;;;2.47;;
43793;SDS011;29414;44.798;20.366;2023-06-04T11:39:22;5.00;;;1.90;;
43793;SDS011;29414;44.798;20.366;2023-06-04T11:43:23;4.53;;;2.60;;
43793;SDS011;29414;44.798;20.366;2023-06-04T11:47:24;3.83;;;2.40;;
43793;SDS011;29414;44.798;20.366;2023-06-04T11:51:24;11.05;;;3.03;;
43793;SDS011;29414;44.798;20.366;2023-06-04T11:55:24;4.72;;;2.00;;
43793;SDS011;29414;44.798;20.366;2023-06-04T11:59:25;4.40;;;2.25;;
43793;SDS011;29414;44.798;20.366;2023-06-04T12:03:33;2.67;;;2.00;;
43793;SDS011;29414;44.798;20.366;2023-06-04T12:07:34;5.38;;;1.92;;
43793;SDS011;29414;44.798;20.366;2023-06-04T12:11:34;4.75;;;2.05;;
43793;SDS011;29414;44.798;20.366;2023-06-04T12:15:35;6.45;;;2.90;;
43793;SDS011;29414;44.798;20.366;2023-06-04T12:19:46;5.15;;;2.20;;
43793;SDS011;29414;44.798;20.366;2023-06-04T12:23:47;6.05;;;2.70;;
43793;SDS011;29414;44.798;20.366;2023-06-04T12:27:47;2.75;;;1.60;;
43793;SDS011;29414;44.798;20.366;2023-06-04T12:31:48;3.92;;;2.58;;
43793;SDS011;29414;44.798;20.366;2023-06-04T12:35:49;4.82;;;2.25;;
43793;SDS011;29414;44.798;20.366;2023-06-04T12:39:49;8.48;;;2.10;;
43793;SDS011;29414;44.798;20.366;2023-06-04T12:43:50;3.85;;;2.20;;
43793;SDS011;29414;44.798;20.366;2023-06-04T12:47:50;7.10;;;2.30;;
43793;SDS011;29414;44.798;20.366;2023-06-04T12:51:51;5.03;;;2.03;;
43793;SDS011;29414;44.798;20.366;2023-06-04T12:55:51;4.46;;;2.06;;
43793;SDS011;29414;44.798;20.366;2023-06-04T12:59:51;3.05;;;1.90;;
43793;SDS011;29414;44.798;20.366;2023-06-04T13:03:51;5.03;;;2.22;;
43793;SDS011;29414;44.798;20.366;2023-06-04T13:07:52;4.45;;;1.67;;
43793;SDS011;29414;44.798;20.366;2023-06-04T13:11:52;5.00;;;1.85;;
43793;SDS011;29414;44.798;20.366;2023-06-04T13:15:52;3.25;;;1.83;;
43793;SDS011;29414;44.798;20.366;2023-06-04T13:19:52;4.53;;;2.00;;
43793;SDS011;29414;44.798;20.366;2023-06-04T13:23:53;3.72;;;2.03;;
43793;SDS011;29414;44.798;20.366;2023-06-04T13:27:54;2.83;;;1.73;;
43793;SDS011;29414;44.798;20.366;2023-06-04T13:31:54;2.53;;;1.90;;
43793;SDS011;29414;44.798;20.366;2023-06-04T13:35:56;4.05;;;2.15;;
43793;SDS011;29414;44.798;20.366;2023-06-04T13:39:56;4.10;;;1.98;;
43793;SDS011;29414;44.798;20.366;2023-06-04T13:43:56;3.88;;;1.83;;
43793;SDS011;29414;44.798;20.366;2023-06-04T13:47:56;5.35;;;2.03;;
43793;SDS011;29414;44.798;20.366;2023-06-04T13:52:02;3.20;;;2.03;;
43793;SDS011;29414;44.798;20.366;2023-06-04T13:56:02;3.70;;;1.95;;
43793;SDS011;29414;44.798;20.366;2023-06-04T14:00:03;2.03;;;1.70;;
43793;SDS011;29414;44.798;20.366;2023-06-04T14:04:04;3.58;;;1.55;;
43793;SDS011;29414;44.798;20.366;2023-06-04T14:08:06;3.03;;;1.30;;
43793;SDS011;29414;44.798;20.366;2023-06-04T14:12:07;1.63;;;1.27;;
43793;SDS011;29414;44.798;20.366;2023-06-04T14:16:07;3.05;;;1.40;;
43793;SDS011;29414;44.798;20.366;2023-06-04T14:20:08;3.05;;;0.93;;
43793;SDS011;29414;44.798;20.366;2023-06-04T14:24:08;1.55;;;1.20;;
43793;SDS011;29414;44.798;20.366;2023-06-04T14:28:09;1.73;;;1.42;;
43793;SDS011;29414;44.798;20.366;2023-06-04T14:32:09;3.00;;;1.20;;
43793;SDS011;29414;44.798;20.366;2023-06-04T14:36:09;3.95;;;1.50;;
43793;SDS011;29414;44.798;20.366;2023-06-04T14:40:10;2.80;;;1.42;;
43793;SDS011;29414;44.798;20.366;2023-06-04T14:44:10;5.50;;;1.92;;
43793;SDS011;29414;44.798;20.366;2023-06-04T14:48:10;2.55;;;1.00;;
43793;SDS011;29414;44.798;20.366;2023-06-04T14:52:11;2.10;;;1.52;;
43793;SDS011;29414;44.798;20.366;2023-06-04T14:56:11;3.13;;;1.83;;
43793;SDS011;29414;44.798;20.366;2023-06-04T15:00:11;2.47;;;1.10;;
43793;SDS011;29414;44.798;20.366;2023-06-04T15:04:12;2.15;;;0.95;;
43793;SDS011;29414;44.798;20.366;2023-06-04T15:08:12;2.75;;;1.20;;
43793;SDS011;29414;44.798;20.366;2023-06-04T15:12:12;3.58;;;1.02;;
43793;SDS011;29414;44.798;20.366;2023-06-04T15:16:13;5.88;;;1.10;;
43793;SDS011;29414;44.798;20.366;2023-06-04T15:20:14;1.45;;;1.35;;
43793;SDS011;29414;44.798;20.366;2023-06-04T15:24:14;3.92;;;1.25;;
43793;SDS011;29414;44.798;20.366;2023-06-04T15:28:15;3.35;;;1.50;;
43793;SDS011;29414;44.798;20.366;2023-06-04T15:32:15;4.60;;;1.23;;
43793;SDS011;29414;44.798;20.366;2023-06-04T15:36:16;2.78;;;1.35;;
43793;SDS011;29414;44.798;20.366;2023-06-04T15:40:16;2.50;;;1.45;;
43793;SDS011;29414;44.798;20.366;2023-06-04T15:44:16;1.77;;;1.35;;
43793;SDS011;29414;44.798;20.366;2023-06-04T15:48:16;4.32;;;1.17;;
43793;SDS011;29414;44.798;20.366;2023-06-04T15:52:17;2.36;;;1.08;;
43793;SDS011;29414;44.798;20.366;2023-06-04T15:56:19;2.53;;;1.05;;
43793;SDS011;29414;44.798;20.366;2023-06-04T16:00:20;3.70;;;1.58;;
43793;SDS011;29414;44.798;20.366;2023-06-04T16:04:20;3.67;;;1.60;;
43793;SDS011;29414;44.798;20.366;2023-06-04T16:08:21;2.55;;;1.60;;
43793;SDS011;29414;44.798;20.366;2023-06-04T16:12:21;3.05;;;1.90;;
43793;SDS011;29414;44.798;20.366;2023-06-04T16:16:21;13.43;;;2.42;;
43793;SDS011;29414;44.798;20.366;2023-06-04T16:20:21;5.07;;;2.50;;
43793;SDS011;29414;44.798;20.366;2023-06-04T16:24:22;3.90;;;1.77;;
43793;SDS011;29414;44.798;20.366;2023-06-04T16:28:22;3.70;;;2.25;;
43793;SDS011;29414;44.798;20.366;2023-06-04T16:32:22;7.47;;;2.30;;
43793;SDS011;29414;44.798;20.366;2023-06-04T16:36:23;3.53;;;1.75;;
43793;SDS011;29414;44.798;20.366;2023-06-04T16:40:23;3.22;;;2.22;;
43793;SDS011;29414;44.798;20.366;2023-06-04T16:44:23;3.92;;;1.85;;
43793;SDS011;29414;44.798;20.366;2023-06-04T16:48:24;2.35;;;2.05;;
43793;SDS011;29414;44.798;20.366;2023-06-04T16:52:24;2.08;;;1.77;;
43793;SDS011;29414;44.798;20.366;2023-06-04T16:56:24;5.40;;;2.33;;
43793;SDS011;29414;44.798;20.366;2023-06-04T17:00:25;5.50;;;2.00;;
43793;SDS011;29414;44.798;20.366;2023-06-04T17:04:25;4.50;;;1.58;;
43793;SDS011;29414;44.798;20.366;2023-06-04T17:08:25;2.63;;;1.95;;
43793;SDS011;29414;44.798;20.366;2023-06-04T17:12:26;6.28;;;2.10;;
43793;SDS011;29414;44.798;20.366;2023-06-04T17:16:26;4.97;;;2.10;;
43793;SDS011;29414;44.798;20.366;2023-06-04T17:20:27;2.35;;;1.63;;
43793;SDS011;29414;44.798;20.366;2023-06-04T17:24:27;3.45;;;1.52;;
43793;SDS011;29414;44.798;20.366;2023-06-04T17:28:28;2.08;;;1.58;;
43793;SDS011;29414;44.798;20.366;2023-06-04T17:32:28;3.33;;;1.55;;
43793;SDS011;29414;44.798;20.366;2023-06-04T17:36:29;3.95;;;1.42;;
43793;SDS011;29414;44.798;20.366;2023-06-04T17:40:29;4.28;;;2.05;;
43793;SDS011;29414;44.798;20.366;2023-06-04T17:44:29;3.92;;;2.05;;
43793;SDS011;29414;44.798;20.366;2023-06-04T17:48:29;7.10;;;1.83;;
43793;SDS011;29414;44.798;20.366;2023-06-04T17:52:30;5.28;;;2.13;;
43793;SDS011;29414;44.798;20.366;2023-06-04T17:56:30;7.40;;;2.08;;
43793;SDS011;29414;44.798;20.366;2023-06-04T18:00:31;4.93;;;1.60;;
43793;SDS011;29414;44.798;20.366;2023-06-04T18:04:31;1.83;;;1.58;;
43793;SDS011;29414;44.798;20.366;2023-06-04T18:08:32;3.67;;;1.90;;
43793;SDS011;29414;44.798;20.366;2023-06-04T18:12:34;4.28;;;1.50;;
43793;SDS011;29414;44.798;20.366;2023-06-04T18:16:34;4.40;;;1.98;;
43793;SDS011;29414;44.798;20.366;2023-06-04T18:20:34;3.08;;;1.80;;
43793;SDS011;29414;44.798;20.366;2023-06-04T18:24:35;4.25;;;2.00;;
43793;SDS011;29414;44.798;20.366;2023-06-04T18:28:36;3.95;;;2.17;;
43793;SDS011;29414;44.798;20.366;2023-06-04T18:32:36;7.40;;;2.47;;
43793;SDS011;29414;44.798;20.366;2023-06-04T18:36:40;5.75;;;2.90;;
43793;SDS011;29414;44.798;20.366;2023-06-04T18:40:40;3.95;;;2.33;;
43793;SDS011;29414;44.798;20.366;2023-06-04T18:44:40;2.76;;;2.14;;
43793;SDS011;29414;44.798;20.366;2023-06-04T18:48:42;4.35;;;2.65;;
43793;SDS011;29414;44.798;20.366;2023-06-04T18:52:43;2.85;;;2.38;;
43793;SDS011;29414;44.798;20.366;2023-06-04T18:56:43;4.80;;;2.33;;
43793;SDS011;29414;44.798;20.366;2023-06-04T19:00:43;5.53;;;2.58;;
43793;SDS011;29414;44.798;20.366;2023-06-04T19:04:44;2.85;;;2.05;;
43793;SDS011;29414;44.798;20.366;2023-06-04T19:08:44;7.47;;;2.45;;
43793;SDS011;29414;44.798;20.366;2023-06-04T19:12:45;3.33;;;2.15;;
43793;SDS011;29414;44.798;20.366;2023-06-04T19:16:45;1.90;;;1.48;;
43793;SDS011;29414;44.798;20.366;2023-06-04T19:20:46;3.15;;;1.45;;
43793;SDS011;29414;44.798;20.366;2023-06-04T19:24:47;4.63;;;1.80;;
43793;SDS011;29414;44.798;20.366;2023-06-04T19:28:47;6.82;;;1.85;;
43793;SDS011;29414;44.798;20.366;2023-06-04T19:32:47;3.20;;;1.40;;
43793;SDS011;29414;44.798;20.366;2023-06-04T19:36:48;4.28;;;1.54;;
43793;SDS011;29414;44.798;20.366;2023-06-04T19:40:48;4.80;;;1.83;;
43793;SDS011;29414;44.798;20.366;2023-06-04T19:44:48;4.60;;;1.65;;
43793;SDS011;29414;44.798;20.366;2023-06-04T19:48:48;4.80;;;1.63;;
43793;SDS011;29414;44.798;20.366;2023-06-04T19:52:50;3.70;;;1.45;;
43793;SDS011;29414;44.798;20.366;2023-06-04T19:56:51;2.10;;;1.20;;
43793;SDS011;29414;44.798;20.366;2023-06-04T20:00:51;4.60;;;1.60;;
43793;SDS011;29414;44.798;20.366;2023-06-04T20:04:51;3.00;;;1.88;;
43793;SDS011;29414;44.798;20.366;2023-06-04T20:08:52;2.15;;;1.52;;
43793;SDS011;29414;44.798;20.366;2023-06-04T20:12:52;1.80;;;1.30;;
43793;SDS011;29414;44.798;20.366;2023-06-04T20:16:52;3.78;;;1.80;;
43793;SDS011;29414;44.798;20.366;2023-06-04T20:20:53;2.88;;;1.75;;
43793;SDS011;29414;44.798;20.366;2023-06-04T20:24:53;3.05;;;1.90;;
43793;SDS011;29414;44.798;20.366;2023-06-04T20:28:55;2.13;;;1.52;;
43793;SDS011;29414;44.798;20.366;2023-06-04T20:32:55;2.25;;;2.05;;
43793;SDS011;29414;44.798;20.366;2023-06-04T20:36:55;3.97;;;2.30;;
43793;SDS011;29414;44.798;20.366;2023-06-04T20:40:57;4.00;;;2.50;;
43793;SDS011;29414;44.798;20.366;2023-06-04T20:44:57;2.50;;;2.15;;
43793;SDS011;29414;44.798;20.366;2023-06-04T20:48:57;5.72;;;1.98;;
43793;SDS011;29414;44.798;20.366;2023-06-04T20:52:57;1.88;;;1.70;;
43793;SDS011;29414;44.798;20.366;2023-06-04T20:56:58;3.46;;;2.30;;
43793;SDS011;29414;44.798;20.366;2023-06-04T21:00:58;3.53;;;2.20;;
43793;SDS011;29414;44.798;20.366;2023-06-04T21:04:58;2.78;;;2.00;;
43793;SDS011;29414;44.798;20.366;2023-06-04T21:08:58;2.50;;;2.30;;
43793;SDS011;29414;44.798;20.366;2023-06-04T21:12:59;4.40;;;2.05;;
43793;SDS011;29414;44.798;20.366;2023-06-04T21:16:59;3.47;;;2.17;;
43793;SDS011;29414;44.798;20.366;2023-06-04T21:20:59;1.92;;;1.73;;
43793;SDS011;29414;44.798;20.366;2023-06-04T21:25:00;2.25;;;2.05;;
43793;SDS011;29414;44.798;20.366;2023-06-04T21:29:00;2.05;;;1.85;;
43793;SDS011;29414;44.798;20.366;2023-06-04T21:33:00;2.94;;;2.02;;
43793;SDS011;29414;44.798;20.366;2023-06-04T21:37:00;2.70;;;1.85;;
43793;SDS011;29414;44.798;20.366;2023-06-04T21:41:01;2.30;;;2.10;;
43793;SDS011;29414;44.798;20.366;2023-06-04T21:45:01;8.18;;;2.56;;
43793;SDS011;29414;44.798;20.366;2023-06-04T21:49:02;3.10;;;1.77;;
43793;SDS011;29414;44.798;20.366;2023-06-04T21:53:02;2.83;;;2.25;;
43793;SDS011;29414;44.798;20.366;2023-06-04T21:57:02;2.50;;;2.30;;
43793;SDS011;29414;44.798;20.366;2023-06-04T22:01:02;2.92;;;2.13;;
43793;SDS011;29414;44.798;20.366;2023-06-04T22:05:03;2.85;;;2.45;;
43793;SDS011;29414;44.798;20.366;2023-06-04T22:09:03;2.85;;;2.58;;
43793;SDS011;29414;44.798;20.366;2023-06-04T22:13:04;2.90;;;2.60;;
43793;SDS011;29414;44.798;20.366;2023-06-04T22:17:04;3.90;;;2.53;;
43793;SDS011;29414;44.798;20.366;2023-06-04T22:21:05;2.40;;;2.20;;
43793;SDS011;29414;44.798;20.366;2023-06-04T22:25:11;3.75;;;2.40;;
43793;SDS011;29414;44.798;20.366;2023-06-04T22:29:12;3.45;;;2.75;;
43793;SDS011;29414;44.798;20.366;2023-06-04T22:33:12;2.60;;;2.35;;
43793;SDS011;29414;44.798;20.366;2023-06-04T22:37:13;3.70;;;2.88;;
43793;SDS011;29414;44.798;20.366;2023-06-04T22:41:13;2.83;;;2.15;;
43793;SDS011;29414;44.798;20.366;2023-06-04T22:45:13;2.70;;;2.05;;
43793;SDS011;29414;44.798;20.366;2023-06-04T22:49:13;3.42;;;2.83;;
43793;SDS011;29414;44.798;20.366;2023-06-04T22:53:17;3.58;;;2.72;;
43793;SDS011;29414;44.798;20.366;2023-06-04T22:57:17;2.75;;;2.40;;
43793;SDS011;29414;44.798;20.366;2023-06-04T23:01:17;4.60;;;3.08;;
43793;SDS011;29414;44.798;20.366;2023-06-04T23:05:17;5.57;;;3.50;;
43793;SDS011;29414;44.798;20.366;2023-06-04T23:09:20;3.03;;;2.45;;
43793;SDS011;29414;44.798;20.366;2023-06-04T23:13:20;4.35;;;2.83;;
43793;SDS011;29414;44.798;20.366;2023-06-04T23:17:20;3.00;;;2.70;;
43793;SDS011;29414;44.798;20.366;2023-06-04T23:21:21;4.82;;;3.10;;
43793;SDS011;29414;44.798;20.366;2023-06-04T23:25:21;3.70;;;3.08;;
43793;SDS011;29414;44.798;20.366;2023-06-04T23:29:21;3.67;;;3.38;;
43793;SDS011;29414;44.798;20.366;2023-06-04T23:33:22;3.85;;;3.55;;
43793;SDS011;29414;44.798;20.366;2023-06-04T23:37:22;5.22;;;3.35;;
43793;SDS011;29414;44.798;20.366;2023-06-04T23:41:22;5.82;;;3.72;;
43793;SDS011;29414;44.798;20.366;2023-06-04T23:45:22;4.45;;;3.70;;
43793;SDS011;29414;44.798;20.366;2023-06-04T23:49:23;3.55;;;3.25;;
43793;SDS011;29414;44.798;20.366;2023-06-04T23:53:23;4.48;;;4.08;;